createdAt,value
2022-08-01T00:00:22.067Z,2.10
2022-08-01T00:02:49.396Z,3.22
2022-08-01T00:05:16.769Z,2.55
2022-08-01T00:07:44.653Z,2.35
2022-08-01T00:10:15.721Z,2.45
2022-08-01T00:12:44.276Z,2.35
2022-08-01T00:15:13.967Z,2.10
2022-08-01T00:17:42.008Z,2.30
2022-08-01T00:20:11.673Z,2.28
2022-08-01T00:22:39.337Z,2.30
2022-08-01T00:25:07.846Z,1.98
2022-08-01T00:27:37.686Z,2.15
2022-08-01T00:30:11.488Z,1.83
2022-08-01T00:32:44.882Z,1.98
2022-08-01T00:35:12.738Z,1.88
2022-08-01T00:37:40.309Z,2.13
2022-08-01T00:40:08.630Z,1.80
2022-08-01T00:42:40.254Z,2.05
2022-08-01T00:45:11.241Z,3.08
2022-08-01T00:47:38.921Z,3.05
2022-08-01T00:50:07.681Z,2.08
2022-08-01T00:52:35.961Z,1.90
2022-08-01T00:55:03.706Z,2.22
2022-08-01T00:58:03.407Z,2.35
2022-08-01T01:00:19.072Z,1.77
2022-08-01T01:02:51.546Z,2.17
2022-08-01T01:05:19.009Z,1.85
2022-08-01T01:08:00.367Z,2.00
2022-08-01T01:10:53.011Z,2.15
2022-08-01T01:13:24.987Z,1.92
2022-08-01T01:16:02.655Z,1.73
2022-08-01T01:19:01.332Z,2.08
2022-08-01T01:21:48.282Z,1.80
2022-08-01T01:24:29.094Z,2.05
2022-08-01T01:27:36.052Z,1.95
2022-08-01T01:30:04.431Z,1.63
2022-08-01T01:32:40.574Z,3.05
2022-08-01T01:35:18.421Z,1.77
2022-08-01T01:37:49.169Z,1.70
2022-08-01T01:40:18.943Z,1.70
2022-08-01T01:42:47.419Z,1.60
2022-08-01T01:45:15.893Z,1.60
2022-08-01T01:47:45.433Z,1.75
2022-08-01T01:50:13.964Z,1.73
2022-08-01T01:52:43.267Z,1.45
2022-08-01T01:55:11.324Z,1.63
2022-08-01T01:57:42.490Z,1.90
2022-08-01T02:00:13.306Z,1.50
2022-08-01T02:02:43.114Z,1.58
2022-08-01T02:05:12.573Z,1.40
2022-08-01T02:07:41.577Z,1.25
2022-08-01T02:10:11.248Z,1.20
2022-08-01T02:12:42.402Z,1.15
2022-08-01T02:15:10.668Z,1.63
2022-08-01T02:17:45.646Z,1.05
2022-08-01T02:20:14.471Z,1.73
2022-08-01T02:22:52.304Z,1.50
2022-08-01T02:25:37.335Z,1.25
2022-08-01T02:28:28.236Z,1.58
2022-08-01T02:31:02.715Z,1.35
2022-08-01T02:33:38.191Z,1.27
2022-08-01T02:36:30.026Z,1.23
2022-08-01T02:38:57.787Z,1.55
2022-08-01T02:41:28.009Z,2.15
2022-08-01T02:44:00.803Z,0.90
2022-08-01T02:46:37.278Z,1.00
2022-08-01T02:49:09.043Z,1.20
2022-08-01T02:51:37.652Z,1.77
2022-08-01T02:54:08.950Z,1.30
2022-08-01T02:56:37.559Z,0.95
2022-08-01T02:59:16.023Z,0.85
2022-08-01T03:01:48.374Z,0.98
2022-08-01T03:04:18.806Z,1.08
2022-08-01T03:06:47.439Z,1.00
2022-08-01T03:09:16.736Z,0.80
2022-08-01T03:11:46.738Z,1.30
2022-08-01T03:14:15.449Z,0.98
2022-08-01T03:16:46.845Z,1.02
2022-08-01T03:19:16.713Z,0.90
2022-08-01T03:21:45.894Z,0.90
2022-08-01T03:24:14.407Z,0.70
2022-08-01T03:26:42.597Z,1.23
2022-08-01T03:29:22.679Z,1.33
2022-08-01T03:31:51.709Z,0.90
2022-08-01T03:34:22.423Z,0.70
2022-08-01T03:36:58.704Z,0.80
2022-08-01T03:39:31.116Z,1.02
2022-08-01T03:42:08.967Z,1.10
2022-08-01T03:44:40.156Z,0.68
2022-08-01T03:47:09.990Z,0.70
2022-08-01T03:49:42.916Z,0.57
2022-08-01T03:52:12.444Z,0.80
2022-08-01T03:54:47.807Z,1.08
2022-08-01T03:57:35.103Z,0.70
2022-08-01T04:00:08.348Z,0.77
2022-08-01T04:02:36.324Z,0.63
2022-08-01T04:05:05.495Z,1.13
2022-08-01T04:07:40.140Z,1.58
2022-08-01T04:10:07.899Z,0.82
2022-08-01T04:12:36.179Z,0.70
2022-08-01T04:15:04.266Z,0.90
2022-08-01T04:17:31.542Z,1.27
2022-08-01T04:19:58.890Z,1.23
2022-08-01T04:22:26.182Z,0.60
2022-08-01T04:24:57.335Z,0.50
2022-08-01T04:27:51.152Z,0.70
2022-08-01T04:30:30.830Z,0.50
2022-08-01T04:33:01.223Z,1.25
2022-08-01T04:36:04.112Z,0.80
2022-08-01T04:38:24.303Z,0.68
2022-08-01T04:40:53.338Z,0.55
2022-08-01T04:43:20.883Z,1.23
2022-08-01T04:45:50.095Z,0.65
2022-08-01T04:48:20.399Z,0.98
2022-08-01T04:50:50.477Z,0.50
2022-08-01T04:53:19.444Z,0.60
2022-08-01T04:55:47.189Z,0.60
2022-08-01T04:58:18.170Z,0.50
2022-08-01T05:00:47.697Z,0.70
2022-08-01T05:03:15.538Z,1.45
2022-08-01T05:05:42.993Z,0.70
2022-08-01T05:08:11.132Z,0.52
2022-08-01T05:10:38.595Z,0.40
2022-08-01T05:13:07.442Z,0.63
2022-08-01T05:15:35.761Z,0.63
2022-08-01T05:18:03.273Z,0.60
2022-08-01T05:20:30.578Z,0.88
2022-08-01T05:22:58.254Z,0.50
2022-08-01T05:25:56.068Z,1.40
2022-08-01T05:28:12.932Z,0.75
2022-08-01T05:30:46.448Z,1.00
2022-08-01T05:33:13.792Z,1.15
2022-08-01T05:35:48.234Z,0.60
2022-08-01T05:38:16.782Z,0.70
2022-08-01T05:40:44.249Z,1.38
2022-08-01T05:43:11.796Z,0.60
2022-08-01T05:45:39.386Z,0.50
2022-08-01T05:48:07.096Z,0.55
2022-08-01T05:50:34.918Z,2.30
2022-08-01T05:53:02.213Z,0.50
2022-08-01T05:55:29.591Z,1.85
2022-08-01T05:57:56.867Z,3.65
2022-08-01T06:00:24.273Z,7.93
2022-08-01T06:02:51.535Z,12.23
2022-08-01T06:05:18.853Z,11.68
2022-08-01T06:07:46.131Z,14.57
2022-08-01T06:10:13.447Z,15.07
2022-08-01T06:12:40.828Z,14.85
2022-08-01T06:15:08.840Z,14.07
2022-08-01T06:17:36.200Z,15.38
2022-08-01T06:20:04.149Z,10.82
2022-08-01T06:22:31.422Z,11.18
2022-08-01T06:24:58.992Z,33.40
2022-08-01T06:27:27.042Z,24.02
2022-08-01T06:29:54.588Z,27.45
2022-08-01T06:32:26.925Z,22.50
2022-08-01T06:34:56.140Z,21.70
2022-08-01T06:37:24.250Z,19.08
2022-08-01T06:39:51.640Z,15.70
2022-08-01T06:42:19.175Z,17.27
2022-08-01T06:44:46.954Z,13.88
2022-08-01T06:47:14.598Z,16.40
2022-08-01T06:49:41.932Z,11.23
2022-08-01T06:52:09.674Z,12.88
2022-08-01T06:54:37.226Z,9.23
2022-08-01T06:57:07.537Z,9.05
2022-08-01T06:59:35.030Z,7.68
2022-08-01T07:02:02.628Z,15.77
2022-08-01T07:04:30.104Z,11.80
2022-08-01T07:06:58.047Z,9.45
2022-08-01T07:09:25.450Z,9.82
2022-08-01T07:11:53.792Z,9.48
2022-08-01T07:14:22.509Z,9.25
2022-08-01T07:16:50.401Z,8.52
2022-08-01T07:19:18.292Z,9.00
2022-08-01T07:21:45.833Z,6.50
2022-08-01T07:24:20.839Z,7.22
2022-08-01T07:26:54.067Z,6.75
2022-08-01T07:29:30.731Z,6.15
2022-08-01T07:32:00.034Z,5.80
2022-08-01T07:34:27.462Z,4.80
2022-08-01T07:36:54.843Z,5.53
2022-08-01T07:39:22.503Z,5.53
2022-08-01T07:42:05.856Z,4.22
2022-08-01T07:44:36.313Z,8.32
2022-08-01T07:47:04.639Z,8.52
2022-08-01T07:49:36.058Z,6.88
2022-08-01T07:52:06.670Z,6.85
2022-08-01T07:54:35.008Z,4.53
2022-08-01T07:57:04.109Z,4.78
2022-08-01T07:59:31.587Z,5.63
2022-08-01T08:01:59.174Z,3.85
2022-08-01T08:04:27.200Z,4.63
2022-08-01T08:06:54.746Z,4.10
2022-08-01T08:09:22.091Z,4.80
2022-08-01T08:11:49.489Z,6.38
2022-08-01T08:14:17.830Z,4.80
2022-08-01T08:16:46.375Z,3.95
2022-08-01T08:19:14.222Z,4.05
2022-08-01T08:21:42.214Z,6.88
2022-08-01T08:24:26.502Z,4.10
2022-08-01T08:26:57.256Z,3.05
2022-08-01T08:29:25.625Z,4.15
2022-08-01T08:31:54.453Z,4.75
2022-08-01T08:34:22.165Z,4.80
2022-08-01T08:36:53.189Z,10.68
2022-08-01T08:39:20.889Z,6.85
2022-08-01T08:41:49.957Z,4.43
2022-08-01T08:44:18.613Z,4.20
2022-08-01T08:46:52.119Z,4.93
2022-08-01T08:49:24.178Z,4.45
2022-08-01T08:51:53.560Z,4.60
2022-08-01T08:54:30.788Z,4.72
2022-08-01T08:57:00.299Z,5.65
2022-08-01T08:59:29.171Z,7.68
2022-08-01T09:01:57.611Z,8.00
2022-08-01T09:04:27.015Z,3.45
2022-08-01T09:06:55.223Z,3.22
2022-08-01T09:09:24.062Z,5.35
2022-08-01T09:11:57.335Z,4.10
2022-08-01T09:14:30.864Z,3.20
2022-08-01T09:17:09.851Z,4.20
2022-08-01T09:19:45.913Z,3.58
2022-08-01T09:22:15.310Z,2.65
2022-08-01T09:24:43.183Z,2.30
2022-08-01T09:27:21.634Z,3.63
2022-08-01T09:30:00.829Z,4.03
2022-08-01T09:32:35.266Z,3.55
2022-08-01T09:35:30.861Z,3.58
2022-08-01T09:38:19.803Z,2.40
2022-08-01T09:40:58.968Z,2.50
2022-08-01T09:43:29.074Z,2.08
2022-08-01T09:46:00.694Z,2.65
2022-08-01T09:48:30.222Z,1.95
2022-08-01T09:51:04.060Z,3.67
2022-08-01T09:53:51.745Z,1.58
2022-08-01T09:56:21.900Z,1.92
2022-08-01T09:59:02.025Z,2.45
2022-08-01T10:01:50.552Z,1.95
2022-08-01T10:04:20.549Z,2.35
2022-08-01T10:06:57.363Z,2.15
2022-08-01T10:09:40.736Z,1.95
2022-08-01T10:12:15.424Z,2.93
2022-08-01T10:14:46.121Z,1.77
2022-08-01T10:17:18.477Z,2.55
2022-08-01T10:19:50.565Z,1.30
2022-08-01T10:22:23.508Z,1.73
2022-08-01T10:24:54.480Z,5.43
2022-08-01T10:27:35.839Z,6.55
2022-08-01T10:30:19.918Z,5.00
2022-08-01T10:32:55.091Z,5.70
2022-08-01T10:35:46.536Z,2.47
2022-08-01T10:38:13.707Z,2.10
2022-08-01T10:40:45.259Z,1.42
2022-08-01T10:43:13.608Z,2.78
2022-08-01T10:45:50.340Z,2.47
2022-08-01T10:48:29.668Z,2.08
2022-08-01T10:51:02.519Z,1.80
2022-08-01T10:53:31.770Z,1.55
2022-08-01T10:56:13.086Z,1.45
2022-08-01T10:58:46.917Z,1.70
2022-08-01T11:01:16.220Z,2.13
2022-08-01T11:03:57.563Z,1.50
2022-08-01T11:06:29.326Z,1.60
2022-08-01T11:08:59.010Z,0.90
2022-08-01T11:11:28.848Z,1.90
2022-08-01T11:14:10.463Z,1.42
2022-08-01T11:16:39.291Z,1.00
2022-08-01T11:19:09.504Z,1.30
2022-08-01T11:21:59.263Z,1.50
2022-08-01T11:24:50.691Z,2.38
2022-08-01T11:27:28.366Z,1.00
2022-08-01T11:30:26.515Z,1.13
2022-08-01T11:35:59.763Z,0.95
2022-08-01T11:38:30.891Z,1.40
2022-08-01T11:41:37.331Z,1.50
2022-08-01T11:44:21.286Z,0.90
2022-08-01T11:47:08.634Z,2.15
2022-08-01T11:49:49.394Z,1.30
2022-08-01T11:52:25.296Z,1.92
2022-08-01T11:54:57.913Z,1.13
2022-08-01T11:57:34.693Z,1.50
2022-08-01T12:00:17.596Z,1.00
2022-08-01T12:02:47.306Z,0.82
2022-08-01T12:05:19.042Z,1.08
2022-08-01T12:07:50.404Z,0.65
2022-08-01T12:10:20.815Z,1.00
2022-08-01T12:12:51.749Z,1.10
2022-08-01T12:15:21.194Z,0.70
2022-08-01T12:17:58.211Z,1.30
2022-08-01T12:20:30.235Z,0.77
2022-08-01T12:23:01.496Z,1.25
2022-08-01T12:25:29.390Z,0.65
2022-08-01T12:28:00.400Z,1.27
2022-08-01T12:30:28.159Z,1.25
2022-08-01T12:32:56.034Z,1.20
2022-08-01T12:35:26.587Z,1.10
2022-08-01T12:37:58.436Z,0.80
2022-08-01T12:40:31.395Z,0.90
2022-08-01T12:43:06.927Z,0.60
2022-08-01T12:45:54.589Z,0.90
2022-08-01T12:48:25.425Z,1.13
2022-08-01T12:50:54.244Z,0.47
2022-08-01T12:53:22.888Z,0.80
2022-08-01T12:55:59.475Z,0.93
2022-08-01T12:58:34.930Z,0.70
2022-08-01T13:01:07.932Z,1.55
2022-08-01T13:03:35.328Z,4.57
2022-08-01T13:06:10.673Z,3.50
2022-08-01T13:08:39.425Z,1.55
2022-08-01T13:11:15.096Z,1.33
2022-08-01T13:13:53.672Z,2.45
2022-08-01T13:16:48.817Z,0.93
2022-08-01T13:19:15.057Z,3.17
2022-08-01T13:21:58.493Z,3.72
2022-08-01T13:24:28.484Z,1.15
2022-08-01T13:26:59.538Z,1.13
2022-08-01T13:29:44.021Z,2.85
2022-08-01T13:32:23.055Z,2.80
2022-08-01T13:35:09.552Z,6.28
2022-08-01T13:37:38.888Z,3.05
2022-08-01T13:40:08.287Z,2.95
2022-08-01T13:42:36.050Z,1.00
2022-08-01T13:45:11.814Z,1.45
2022-08-01T13:48:03.814Z,2.97
2022-08-01T13:50:30.493Z,1.15
2022-08-01T13:52:58.363Z,1.17
2022-08-01T13:55:25.651Z,2.22
2022-08-01T13:57:52.953Z,1.13
2022-08-01T14:00:20.373Z,8.70
2022-08-01T14:02:47.807Z,2.20
2022-08-01T14:05:15.119Z,3.10
2022-08-01T14:07:42.458Z,4.53
2022-08-01T14:10:19.697Z,3.55
2022-08-01T14:12:49.314Z,1.55
2022-08-01T14:15:36.658Z,1.63
2022-08-01T14:18:06.015Z,3.30
2022-08-01T14:20:34.402Z,2.50
2022-08-01T14:23:01.868Z,3.45
2022-08-01T14:26:03.130Z,3.15
2022-08-01T14:28:17.549Z,1.58
2022-08-01T14:30:45.361Z,2.75
2022-08-01T14:33:13.773Z,3.40
2022-08-01T14:36:05.946Z,2.05
2022-08-01T14:38:33.614Z,0.68
2022-08-01T14:41:04.207Z,1.25
2022-08-01T14:43:33.611Z,2.92
2022-08-01T14:46:02.298Z,3.08
2022-08-01T14:48:29.898Z,1.25
2022-08-01T14:50:58.641Z,2.67
2022-08-01T14:53:25.983Z,1.33
2022-08-01T14:55:53.409Z,1.40
2022-08-01T14:58:20.733Z,0.90
2022-08-01T15:00:48.073Z,1.13
2022-08-01T15:03:15.385Z,1.55
2022-08-01T15:05:42.761Z,2.67
2022-08-01T15:08:10.042Z,0.80
2022-08-01T15:10:37.343Z,2.03
2022-08-01T15:13:04.736Z,2.45
2022-08-01T15:15:32.336Z,1.10
2022-08-01T15:17:59.650Z,1.00
2022-08-01T15:20:28.038Z,1.95
2022-08-01T15:22:55.573Z,1.67
2022-08-01T15:25:22.887Z,0.98
2022-08-01T15:27:50.295Z,2.55
2022-08-01T15:30:23.384Z,3.50
2022-08-01T15:32:54.730Z,1.80
2022-08-01T15:35:22.034Z,0.90
2022-08-01T15:37:49.293Z,2.22
2022-08-01T15:40:16.600Z,0.95
2022-08-01T15:42:45.022Z,0.68
2022-08-01T15:45:44.430Z,1.27
2022-08-01T15:48:04.747Z,3.70
2022-08-01T15:50:32.283Z,3.78
2022-08-01T15:52:59.734Z,13.05
2022-08-01T15:55:27.633Z,21.95
2022-08-01T15:57:54.974Z,13.35
2022-08-01T16:00:22.425Z,7.10
2022-08-01T16:02:49.804Z,11.57
2022-08-01T16:05:20.412Z,12.48
2022-08-01T16:07:59.435Z,25.63
2022-08-01T16:10:30.435Z,34.78
2022-08-01T16:12:58.128Z,38.20
2022-08-01T16:15:36.305Z,25.40
2022-08-01T16:18:08.465Z,43.40
2022-08-01T16:20:39.078Z,47.47
2022-08-01T16:23:10.366Z,44.85
2022-08-01T16:25:38.080Z,42.55
2022-08-01T16:28:05.537Z,47.30
2022-08-01T16:30:33.096Z,46.28
2022-08-01T16:33:04.815Z,51.17
2022-08-01T16:35:36.760Z,36.30
2022-08-01T16:38:05.711Z,33.17
2022-08-01T16:40:46.442Z,30.40
2022-08-01T16:43:19.667Z,23.55
2022-08-01T16:45:47.572Z,24.08
2022-08-01T16:48:16.145Z,30.58
2022-08-01T16:50:43.789Z,53.80
2022-08-01T16:53:12.306Z,34.97
2022-08-01T16:55:49.335Z,42.28
2022-08-01T16:58:27.101Z,32.65
2022-08-01T17:00:57.479Z,23.38
2022-08-01T17:03:51.244Z,34.97
2022-08-01T17:06:13.985Z,29.13
2022-08-01T17:08:46.932Z,21.80
2022-08-01T17:11:14.968Z,19.45
2022-08-01T17:13:42.757Z,16.88
2022-08-01T17:16:11.111Z,19.73
2022-08-01T17:18:38.463Z,20.73
2022-08-01T17:21:06.070Z,20.35
2022-08-01T17:23:34.985Z,9.68
2022-08-01T17:26:02.323Z,30.75
2022-08-01T17:28:29.653Z,16.83
2022-08-01T17:30:57.075Z,17.60
2022-08-01T17:33:24.403Z,23.13
2022-08-01T17:36:11.783Z,21.15
2022-08-01T17:38:39.178Z,15.82
2022-08-01T17:41:06.463Z,50.33
2022-08-01T17:43:33.769Z,27.58
2022-08-01T17:46:01.131Z,30.63
2022-08-01T17:48:29.425Z,31.77
2022-08-01T17:50:56.915Z,27.63
2022-08-01T17:53:24.407Z,32.92
2022-08-01T17:55:55.421Z,30.65
2022-08-01T17:58:49.628Z,31.15
2022-08-01T18:01:16.894Z,29.52
2022-08-01T18:03:45.094Z,29.90
2022-08-01T18:06:19.684Z,14.73
2022-08-01T18:08:50.660Z,17.60
2022-08-01T18:11:24.803Z,9.00
2022-08-01T18:13:55.930Z,9.25
2022-08-01T18:16:23.609Z,4.97
2022-08-01T18:18:50.912Z,12.65
2022-08-01T18:21:18.223Z,6.68
2022-08-01T18:23:51.277Z,10.52
2022-08-01T18:26:20.609Z,14.13
2022-08-01T18:28:48.009Z,13.90
2022-08-01T18:31:17.789Z,14.02
2022-08-01T18:33:46.183Z,15.95
2022-08-01T18:36:31.579Z,10.80
2022-08-01T18:39:04.592Z,7.63
2022-08-01T18:41:32.933Z,5.32
2022-08-01T18:44:05.486Z,7.63
2022-08-01T18:46:36.421Z,4.45
2022-08-01T18:49:03.761Z,9.10
2022-08-01T18:51:31.237Z,10.98
2022-08-01T18:53:58.613Z,7.57
2022-08-01T18:56:26.030Z,11.98
2022-08-01T18:58:54.980Z,12.10
2022-08-01T19:01:22.922Z,17.80
2022-08-01T19:03:50.473Z,23.30
2022-08-01T19:06:18.051Z,12.77
2022-08-01T19:08:46.075Z,17.42
2022-08-01T19:11:13.454Z,10.23
2022-08-01T19:13:40.778Z,8.45
2022-08-01T19:16:08.099Z,11.52
2022-08-01T19:18:35.563Z,7.60
2022-08-01T19:21:04.587Z,8.82
2022-08-01T19:23:50.378Z,9.27
2022-08-01T19:26:20.315Z,9.43
2022-08-01T19:28:51.083Z,23.52
2022-08-01T19:31:27.659Z,15.60
2022-08-01T19:33:56.388Z,18.45
2022-08-01T19:36:24.698Z,14.52
2022-08-01T19:38:52.094Z,9.55
2022-08-01T19:41:19.632Z,7.85
2022-08-01T19:43:47.981Z,8.25
2022-08-01T19:46:17.943Z,10.65
2022-08-01T19:48:51.560Z,3.72
2022-08-01T19:51:33.128Z,9.98
2022-08-01T19:54:05.500Z,2.90
2022-08-01T19:56:40.912Z,4.18
2022-08-01T19:59:09.367Z,2.45
2022-08-01T20:01:37.793Z,2.95
2022-08-01T20:04:06.232Z,3.75
2022-08-01T20:06:35.316Z,6.05
2022-08-01T20:09:04.149Z,5.45
2022-08-01T20:11:31.777Z,2.08
2022-08-01T20:14:00.517Z,3.67
2022-08-01T20:16:29.583Z,3.15
2022-08-01T20:18:57.154Z,7.28
2022-08-01T20:21:27.039Z,2.10
2022-08-01T20:24:02.758Z,2.97
2022-08-01T20:26:31.623Z,1.83
2022-08-01T20:29:00.417Z,1.83
2022-08-01T20:31:33.948Z,2.83
2022-08-01T20:34:15.676Z,3.50
2022-08-01T20:36:54.410Z,2.30
2022-08-01T20:39:26.590Z,1.90
2022-08-01T20:41:59.671Z,1.80
2022-08-01T20:44:31.696Z,1.90
2022-08-01T20:47:01.315Z,2.33
2022-08-01T20:49:30.061Z,1.98
2022-08-01T20:51:57.716Z,2.40
2022-08-01T20:54:26.764Z,2.65
2022-08-01T20:57:00.338Z,1.88
2022-08-01T20:59:40.038Z,2.15
2022-08-01T21:02:41.566Z,1.42
2022-08-01T21:05:11.521Z,2.63
2022-08-01T21:08:00.611Z,2.75
2022-08-01T21:10:30.746Z,1.88
2022-08-01T21:13:14.148Z,1.55
2022-08-01T21:16:22.673Z,3.00
2022-08-01T21:19:19.114Z,1.88
2022-08-01T21:21:59.557Z,2.22
2022-08-01T21:24:35.970Z,2.47
2022-08-01T21:27:05.042Z,1.70
2022-08-01T21:29:34.357Z,1.88
2022-08-01T21:32:13.190Z,1.50
2022-08-01T21:34:42.546Z,1.48
2022-08-01T21:37:10.890Z,2.42
2022-08-01T21:39:40.265Z,1.88
2022-08-01T21:42:16.520Z,1.25
2022-08-01T21:44:47.040Z,1.33
2022-08-01T21:47:15.517Z,1.33
2022-08-01T21:49:42.989Z,1.95
2022-08-01T21:52:18.160Z,1.42
2022-08-01T21:55:05.294Z,3.20
2022-08-01T21:57:59.568Z,2.05
2022-08-01T22:00:29.457Z,1.88
2022-08-01T22:03:35.574Z,1.25
2022-08-01T22:06:04.075Z,1.90
2022-08-01T22:08:38.290Z,2.05
2022-08-01T22:11:08.029Z,1.60
2022-08-01T22:13:36.529Z,1.13
2022-08-01T22:16:05.618Z,2.03
2022-08-01T22:18:33.959Z,1.30
2022-08-01T22:21:02.929Z,2.28
2022-08-01T22:23:34.823Z,1.65
2022-08-01T22:26:05.505Z,1.88
2022-08-01T22:28:35.225Z,1.70
2022-08-01T22:31:04.078Z,1.23
2022-08-01T22:33:34.218Z,1.00
2022-08-01T22:36:02.667Z,1.52
2022-08-01T22:38:30.160Z,2.30
2022-08-01T22:41:15.185Z,3.05
2022-08-01T22:44:35.302Z,1.70
2022-08-01T22:47:12.045Z,2.10
2022-08-01T22:49:51.006Z,2.97
2022-08-01T22:52:33.526Z,1.50
2022-08-01T22:55:09.541Z,2.50
2022-08-01T22:57:55.862Z,1.85
2022-08-01T23:00:25.741Z,1.83
2022-08-01T23:03:05.969Z,2.47
2022-08-01T23:05:40.494Z,1.58
2022-08-01T23:08:16.041Z,1.55
2022-08-01T23:10:44.133Z,2.30
2022-08-01T23:13:11.869Z,2.10
2022-08-01T23:15:40.423Z,1.73
2022-08-01T23:18:21.368Z,1.50
2022-08-01T23:20:52.689Z,1.90
2022-08-01T23:23:30.961Z,1.88
2022-08-01T23:26:00.303Z,1.50
2022-08-01T23:28:28.975Z,2.15
2022-08-01T23:30:57.888Z,1.67
2022-08-01T23:33:25.197Z,1.42
2022-08-01T23:35:52.572Z,1.58
2022-08-01T23:38:20.442Z,2.53
2022-08-01T23:40:48.630Z,2.05
2022-08-01T23:43:17.612Z,1.85
2022-08-01T23:46:04.117Z,1.45
2022-08-01T23:48:33.666Z,1.98
2022-08-01T23:51:01.343Z,1.55
2022-08-01T23:53:31.400Z,1.42
2022-08-01T23:56:01.715Z,1.50
2022-08-01T23:58:30.522Z,1.20
